Time;durP1;ratioP1;P1;durP2;ratioP2;P2;SDS_P1;SDS_P2;PMS_P1;PMS_P2;Temp;Humidity;BMP_temperature;BMP_pressure;BME280_temperature;BME280_humidity;BME280_pressure;Samples;Min_cycle;Max_cycle;Signal;HPM_P1;HPM_P2
2023/12/10 00:04:57;;;;;;;266.20;110.40;;;;;;;-6.16;100.00;98252.20;273092;1269;23090;-90
2023/12/10 00:10:58;;;;;;;252.00;104.30;;;;;;;-6.24;100.00;98253.16;273165;1266;22410;-91
2023/12/10 00:17:01;;;;;;;285.70;115.10;;;;;;;-6.21;100.00;98244.55;273166;1266;22222;-90
2023/12/10 00:23:04;;;;;;;267.70;115.30;;;;;;;-6.29;100.00;98234.80;273127;1268;22294;-90
2023/12/10 00:29:05;;;;;;;255.10;103.70;;;;;;;-6.38;100.00;98223.45;273091;1267;22259;-92
2023/12/10 00:35:10;;;;;;;240.90;100.70;;;;;;;-6.46;100.00;98216.23;273150;1266;23240;-91
2023/12/10 00:41:13;;;;;;;238.50;98.30;;;;;;;-6.53;100.00;98209.98;273277;1268;23264;-91
2023/12/10 00:47:15;;;;;;;239.70;97.70;;;;;;;-6.71;100.00;98216.08;273202;1267;22465;-90
2023/12/10 00:53:20;;;;;;;245.10;97.00;;;;;;;-6.71;100.00;98219.75;272967;1267;22338;-91
2023/12/10 00:59:23;;;;;;;258.10;105.60;;;;;;;-6.74;100.00;98210.80;273173;1267;22328;-92
2023/12/10 01:05:28;;;;;;;247.40;96.40;;;;;;;-6.83;100.00;98208.77;273407;1260;22217;-90
2023/12/10 01:11:30;;;;;;;;;;;;;;;-7.01;100.00;98211.55;273241;1267;22521;-90
2023/12/10 01:17:33;;;;;;;240.40;101.00;;;;;;;-7.08;100.00;98201.45;273168;1267;22470;-91
2023/12/10 01:23:34;;;;;;;277.50;104.70;;;;;;;-7.18;100.00;98193.52;273063;1267;22346;-91
2023/12/10 01:29:36;;;;;;;208.70;84.60;;;;;;;-7.35;100.00;98187.70;273125;1267;22216;-91
2023/12/10 01:35:39;;;;;;;205.60;86.00;;;;;;;-7.53;100.00;98190.25;273206;1260;22181;-91
2023/12/10 01:41:49;;;;;;;203.30;82.70;;;;;;;-7.55;100.00;98190.27;273116;1267;22395;-91
2023/12/10 01:47:52;;;;;;;209.40;85.10;;;;;;;-7.58;100.00;98188.20;273212;1267;22326;-90
2023/12/10 01:54:12;;;;;;;221.20;85.70;;;;;;;-7.56;100.00;98181.13;273274;1267;22679;-90
2023/12/10 02:00:14;;;;;;;240.70;95.20;;;;;;;-7.50;100.00;98169.55;273090;1267;22244;-90
2023/12/10 02:06:16;;;;;;;246.10;95.70;;;;;;;-7.42;100.00;98159.73;273204;1267;22238;-91
2023/12/10 02:12:20;;;;;;;231.50;92.20;;;;;;;-7.31;100.00;98151.63;273166;1266;22438;-91
2023/12/10 02:18:23;;;;;;;265.70;101.30;;;;;;;-7.22;100.00;98137.65;273046;1266;22505;-91
2023/12/10 02:24:36;;;;;;;216.60;87.40;;;;;;;-7.18;100.00;98130.38;273251;1266;23804;-91
2023/12/10 02:48:01;;;;;;;269.90;113.50;;;;;;;-6.76;100.00;98096.05;267078;1296;549882;-87
2023/12/10 02:54:03;;;;;;;247.70;100.20;;;;;;;-6.60;100.00;98084.14;271573;1281;23428;-87
2023/12/10 03:00:08;;;;;;;239.50;96.70;;;;;;;-6.59;100.00;98096.89;271420;1281;22480;-86
2023/12/10 03:06:10;;;;;;;210.40;83.30;;;;;;;-6.51;100.00;98095.41;269296;1281;22540;-86
2023/12/10 03:12:12;;;;;;;200.50;83.10;;;;;;;-6.47;100.00;98096.16;270414;1284;22457;-86
2023/12/10 03:18:15;;;;;;;214.50;88.40;;;;;;;-6.40;100.00;98094.31;271279;1281;22758;-87
2023/12/10 03:24:18;;;;;;;211.70;83.60;;;;;;;-6.33;100.00;98088.95;271705;1281;22184;-87
2023/12/10 03:30:20;;;;;;;225.40;95.90;;;;;;;-6.23;100.00;98090.08;271555;1281;23451;-88
2023/12/10 03:36:22;;;;;;;236.50;99.10;;;;;;;-6.21;100.00;98093.13;271532;1281;22262;-88
2023/12/10 03:42:24;;;;;;;249.30;106.30;;;;;;;-6.19;100.00;98092.68;271364;1281;22587;-88
2023/12/10 03:48:26;;;;;;;253.70;103.80;;;;;;;-6.18;100.00;98078.23;269015;1281;22558;-87
2023/12/10 03:54:28;;;;;;;254.50;105.40;;;;;;;-6.21;100.00;98078.59;270196;1271;22208;-88
2023/12/10 04:00:30;;;;;;;244.00;102.10;;;;;;;-6.23;100.00;98087.21;269615;1281;22448;-87
2023/12/10 04:06:41;;;;;;;243.70;102.30;;;;;;;-6.21;100.00;98086.00;271077;1281;22767;-87
2023/12/10 04:12:43;;;;;;;248.20;102.10;;;;;;;-6.15;100.00;98082.08;268785;1281;23680;-88
2023/12/10 04:18:45;;;;;;;241.40;98.50;;;;;;;-6.08;100.00;98074.08;269875;1281;23552;-88
2023/12/10 04:24:47;;;;;;;226.50;96.00;;;;;;;-6.03;100.00;98089.73;271243;1281;22443;-87
2023/12/10 04:30:50;;;;;;;242.50;99.50;;;;;;;-6.01;100.00;98109.95;270564;1272;22711;-87
2023/12/10 04:36:52;;;;;;;231.60;98.20;;;;;;;-5.91;100.00;98113.05;272937;1269;22308;-87
2023/12/10 04:42:54;;;;;;;246.10;98.30;;;;;;;-5.85;100.00;98119.77;272808;1270;22299;-89
2023/12/10 04:48:56;;;;;;;235.70;101.50;;;;;;;-5.77;100.00;98127.40;273278;1273;22298;-88
2023/12/10 04:54:58;;;;;;;243.00;105.70;;;;;;;-5.76;100.00;98126.16;271400;1267;22269;-87
2023/12/10 05:01:02;;;;;;;248.80;106.10;;;;;;;-5.72;100.00;98126.67;272948;1274;22311;-88
2023/12/10 05:07:04;;;;;;;255.80;112.80;;;;;;;-5.68;100.00;98128.38;273161;1270;22422;-88
2023/12/10 05:13:06;;;;;;;255.40;107.90;;;;;;;-5.58;100.00;98135.15;273263;1270;22200;-88
2023/12/10 05:19:08;;;;;;;271.60;116.90;;;;;;;-5.52;100.00;98135.33;273273;1273;23444;-89
2023/12/10 05:25:11;;;;;;;252.10;112.30;;;;;;;-5.44;100.00;98135.98;272246;1270;22642;-87
2023/12/10 05:31:14;;;;;;;225.30;94.10;;;;;;;-5.38;100.00;98134.38;273170;1271;22211;-88
2023/12/10 05:37:16;;;;;;;209.90;86.70;;;;;;;-5.28;100.00;98139.18;272494;1274;22443;-87
2023/12/10 05:43:19;;;;;;;210.10;86.70;;;;;;;-5.20;100.00;98145.08;272993;1270;22217;-87
2023/12/10 05:49:22;;;;;;;185.90;82.00;;;;;;;-5.12;100.00;98142.15;273141;1266;22297;-88
2023/12/10 05:55:24;;;;;;;211.60;87.90;;;;;;;-5.06;100.00;98152.52;273223;1271;23051;-88
2023/12/10 06:01:27;;;;;;;202.40;89.50;;;;;;;-5.08;100.00;98150.45;273210;1274;22461;-88
2023/12/10 06:07:29;;;;;;;195.00;85.00;;;;;;;-5.10;100.00;98153.84;273418;1257;22378;-86
2023/12/10 06:13:32;;;;;;;199.70;87.80;;;;;;;-5.09;100.00;98171.52;273326;1274;22284;-87
2023/12/10 06:19:34;;;;;;;213.10;85.90;;;;;;;-5.08;100.00;98181.09;273327;1259;22392;-88
2023/12/10 06:25:36;;;;;;;191.60;84.60;;;;;;;-5.04;100.00;98181.23;273188;1270;22373;-87
2023/12/10 06:31:38;;;;;;;212.10;88.60;;;;;;;-5.01;100.00;98186.04;273303;1274;23282;-88
2023/12/10 06:37:41;;;;;;;208.70;86.60;;;;;;;-4.96;100.00;98196.46;273314;1271;22379;-87
2023/12/10 06:43:43;;;;;;;207.60;90.80;;;;;;;-4.91;100.00;98206.58;273238;1270;23387;-88
2023/12/10 06:49:45;;;;;;;190.90;82.80;;;;;;;-4.87;100.00;98210.09;273327;1272;22197;-88
2023/12/10 06:55:49;;;;;;;229.30;97.10;;;;;;;-4.85;100.00;98222.76;272819;1274;22658;-87
2023/12/10 07:01:51;;;;;;;228.70;101.20;;;;;;;-4.78;100.00;98235.08;272557;1266;23196;-88
2023/12/10 07:07:53;;;;;;;226.30;104.30;;;;;;;-4.72;100.00;98245.71;272373;1270;22393;-87
2023/12/10 07:13:55;;;;;;;247.00;112.50;;;;;;;-4.62;100.00;98254.61;271632;1272;25387;-88
2023/12/10 07:19:57;;;;;;;234.70;102.60;;;;;;;-4.57;100.00;98258.31;271961;1271;22556;-87
2023/12/10 07:26:00;;;;;;;223.90;101.80;;;;;;;-4.50;100.00;98263.31;272378;1270;22215;-88
2023/12/10 07:32:02;;;;;;;220.90;98.80;;;;;;;-4.39;100.00;98276.50;273145;1275;22291;-88
2023/12/10 07:38:04;;;;;;;246.80;102.80;;;;;;;-4.29;100.00;98288.41;273014;1270;22241;-88
2023/12/10 07:44:07;;;;;;;219.50;94.90;;;;;;;-4.25;100.00;98300.78;273180;1274;22204;-88
2023/12/10 07:50:09;;;;;;;201.90;90.00;;;;;;;-4.13;100.00;98317.82;272281;1270;22381;-89
2023/12/10 07:56:11;;;;;;;207.80;91.10;;;;;;;-3.98;100.00;98325.40;273353;1266;22193;-87
2023/12/10 08:02:13;;;;;;;205.10;95.10;;;;;;;-3.88;100.00;98337.65;271971;1275;22273;-88
2023/12/10 08:08:15;;;;;;;208.70;93.90;;;;;;;-3.77;100.00;98343.00;271428;1270;22559;-87
2023/12/10 08:14:17;;;;;;;205.10;94.00;;;;;;;-3.61;100.00;98344.38;272739;1270;23038;-88
2023/12/10 08:20:21;;;;;;;221.10;99.60;;;;;;;-3.49;100.00;98342.77;273273;1270;22194;-88
2023/12/10 08:26:26;;;;;;;236.00;102.00;;;;;;;-3.32;100.00;98348.21;272503;1270;22229;-88
2023/12/10 08:32:29;;;;;;;220.00;100.00;;;;;;;-3.17;100.00;98363.23;273294;1267;22565;-89
2023/12/10 08:38:31;;;;;;;216.30;97.80;;;;;;;-3.00;100.00;98373.38;271952;1270;22566;-87
2023/12/10 08:44:33;;;;;;;215.90;96.10;;;;;;;-2.89;100.00;98372.27;272352;1270;22302;-89
2023/12/10 08:50:35;;;;;;;202.30;91.60;;;;;;;-2.83;100.00;98376.09;271831;1270;22245;-89
2023/12/10 08:56:38;;;;;;;231.00;105.90;;;;;;;-2.72;100.00;98381.45;271427;1270;22222;-89
2023/12/10 09:02:40;;;;;;;216.40;101.60;;;;;;;-2.64;100.00;98382.88;271873;1270;22582;-91
2023/12/10 09:08:43;;;;;;;236.30;102.40;;;;;;;-2.55;100.00;98379.13;271565;1270;22210;-90
2023/12/10 09:14:45;;;;;;;201.70;96.90;;;;;;;-2.50;100.00;98378.89;272083;1270;22342;-89
2023/12/10 09:20:48;;;;;;;210.10;97.10;;;;;;;-2.45;100.00;98372.86;273260;1270;23466;-90
2023/12/10 09:26:51;;;;;;;213.70;101.10;;;;;;;-2.28;100.00;98378.23;273241;1270;22337;-89
2023/12/10 09:32:53;;;;;;;197.80;95.80;;;;;;;-2.05;100.00;98377.81;272483;1271;22730;-88
2023/12/10 09:38:55;;;;;;;196.50;95.40;;;;;;;-1.85;100.00;98379.04;271086;1271;22549;-87
2023/12/10 09:44:57;;;;;;;197.90;95.50;;;;;;;-1.68;100.00;98381.10;271513;1271;22576;-88
2023/12/10 09:51:00;;;;;;;195.30;95.10;;;;;;;-1.50;100.00;98371.27;272936;1270;23656;-89
2023/12/10 09:57:02;;;;;;;214.10;99.50;;;;;;;-1.42;100.00;98365.36;273129;1270;23549;-87
2023/12/10 10:03:05;;;;;;;220.60;102.20;;;;;;;-1.28;100.00;98362.31;272803;1269;22201;-87
2023/12/10 10:09:08;;;;;;;224.80;106.90;;;;;;;-1.12;100.00;98362.75;271776;1270;22430;-88
2023/12/10 10:15:10;;;;;;;234.00;107.40;;;;;;;-0.93;100.00;98359.09;273282;1264;22209;-88
2023/12/10 10:21:12;;;;;;;218.80;102.90;;;;;;;-0.76;100.00;98357.23;273091;1270;23140;-87
2023/12/10 10:27:15;;;;;;;220.00;105.30;;;;;;;-0.64;100.00;98351.98;273058;1270;22199;-88
2023/12/10 10:33:17;;;;;;;218.40;107.50;;;;;;;-0.54;100.00;98342.64;272853;1270;23059;-88
2023/12/10 10:39:19;;;;;;;228.60;112.10;;;;;;;-0.45;100.00;98352.35;273085;1270;22331;-89
2023/12/10 10:45:21;;;;;;;225.80;111.60;;;;;;;-0.38;100.00;98352.46;273488;1270;22417;-88
2023/12/10 10:51:28;;;;;;;235.20;113.10;;;;;;;-0.27;100.00;98351.75;273471;1270;22919;-88
2023/12/10 10:57:34;;;;;;;218.00;110.10;;;;;;;-0.19;100.00;98356.77;273195;1269;22361;-88
2023/12/10 11:03:38;;;;;;;228.60;112.00;;;;;;;-0.14;100.00;98361.07;273677;1266;22664;-89
2023/12/10 11:10:02;;;;;;;255.80;127.70;;;;;;;0.01;100.00;98358.67;273486;1269;22528;-89
2023/12/10 11:16:04;;;;;;;256.80;127.70;;;;;;;0.13;100.00;98354.02;273025;1269;22397;-87
2023/12/10 11:22:07;;;;;;;255.40;125.90;;;;;;;0.22;100.00;98356.63;273219;1269;22208;-88
2023/12/10 11:28:14;;;;;;;239.50;126.10;;;;;;;0.34;100.00;98363.59;273111;1269;23456;-87
2023/12/10 11:34:16;;;;;;;235.40;124.10;;;;;;;0.48;100.00;98359.92;271946;1270;23119;-87
2023/12/10 11:40:18;;;;;;;224.10;113.10;;;;;;;0.60;100.00;98363.95;271534;1270;23370;-88
2023/12/10 11:46:22;;;;;;;222.30;115.20;;;;;;;0.69;100.00;98360.29;271905;1269;22548;-88
2023/12/10 11:52:28;;;;;;;222.30;114.50;;;;;;;0.79;100.00;98361.34;271922;1269;23570;-88
2023/12/10 11:58:32;;;;;;;224.40;112.10;;;;;;;0.85;100.00;98373.19;273030;1269;22589;-88
2023/12/10 12:04:34;;;;;;;243.50;121.40;;;;;;;0.84;100.00;98383.84;272574;1270;22264;-88
2023/12/10 12:10:37;;;;;;;274.80;130.40;;;;;;;0.81;100.00;98388.71;273406;1270;22293;-89
2023/12/10 12:16:39;;;;;;;248.20;122.00;;;;;;;0.78;100.00;98390.64;272846;1270;22320;-89
2023/12/10 12:22:41;;;;;;;244.30;116.90;;;;;;;0.77;100.00;98393.54;272681;1271;22243;-89
2023/12/10 12:28:43;;;;;;;215.40;106.30;;;;;;;0.75;100.00;98406.74;273336;1269;22204;-89
2023/12/10 12:34:45;;;;;;;197.10;102.30;;;;;;;0.77;100.00;98415.44;273494;1270;22470;-89
2023/12/10 12:40:47;;;;;;;198.80;98.90;;;;;;;0.81;100.00;98422.05;272554;1265;22766;-89
2023/12/10 12:46:49;;;;;;;204.00;105.00;;;;;;;0.84;100.00;98426.19;271953;1269;22610;-89
2023/12/10 12:52:51;;;;;;;181.60;91.20;;;;;;;0.79;100.00;98434.08;273236;1268;23219;-90
2023/12/10 12:58:54;;;;;;;197.90;97.10;;;;;;;0.73;100.00;98436.35;272271;1269;22437;-88
2023/12/10 13:04:56;;;;;;;208.90;100.40;;;;;;;0.72;100.00;98440.77;272887;1269;22714;-89
2023/12/10 13:10:58;;;;;;;202.80;95.70;;;;;;;0.73;100.00;98441.84;273415;1269;22382;-88
2023/12/10 13:17:01;;;;;;;192.40;91.40;;;;;;;0.76;100.00;98450.54;273374;1270;22217;-88
2023/12/10 13:23:04;;;;;;;196.00;95.10;;;;;;;0.77;100.00;98446.98;271549;1269;22300;-88
2023/12/10 13:29:06;;;;;;;206.90;93.90;;;;;;;0.78;100.00;98450.30;271452;1269;22462;-88
2023/12/10 13:35:08;;;;;;;200.30;93.00;;;;;;;0.74;100.00;98447.38;270601;1268;22548;-88
2023/12/10 13:41:10;;;;;;;222.80;104.60;;;;;;;0.69;100.00;98453.67;273250;1268;22278;-88
2023/12/10 13:47:13;;;;;;;230.50;107.50;;;;;;;0.64;100.00;98464.54;273501;1268;23195;-88
2023/12/10 13:53:15;;;;;;;219.80;99.60;;;;;;;0.62;100.00;98475.06;271428;1270;22321;-88
2023/12/10 13:59:17;;;;;;;204.70;92.60;;;;;;;0.58;100.00;98483.29;273552;1270;22281;-88
2023/12/10 14:05:19;;;;;;;190.90;89.00;;;;;;;0.53;100.00;98489.80;273041;1258;22349;-88
2023/12/10 14:11:21;;;;;;;214.40;98.60;;;;;;;0.48;100.00;98486.68;273539;1269;22407;-88
2023/12/10 14:17:23;;;;;;;215.20;97.20;;;;;;;0.49;100.00;98488.09;272272;1269;23342;-88
2023/12/10 14:23:25;;;;;;;218.30;98.50;;;;;;;0.45;100.00;98491.30;270970;1269;22544;-88
2023/12/10 14:29:27;;;;;;;193.40;88.80;;;;;;;0.41;100.00;98492.71;270505;1269;22595;-88
2023/12/10 14:35:30;;;;;;;170.50;81.20;;;;;;;0.40;100.00;98500.38;270389;1270;22691;-88
2023/12/10 14:41:32;;;;;;;187.20;87.20;;;;;;;0.36;100.00;98506.69;270548;1269;22234;-88
2023/12/10 14:47:35;;;;;;;176.40;83.60;;;;;;;0.36;100.00;98503.42;272056;1268;569603;-88
2023/12/10 14:53:38;;;;;;;180.30;84.10;;;;;;;0.35;100.00;98500.80;272217;1267;22500;-88
2023/12/10 14:59:41;;;;;;;172.90;84.40;;;;;;;0.35;100.00;98494.41;271780;1270;22216;-89
2023/12/10 15:05:44;;;;;;;150.00;73.10;;;;;;;0.36;100.00;98498.67;272640;1267;22560;-88
2023/12/10 15:11:45;;;;;;;147.60;71.90;;;;;;;0.38;100.00;98495.06;271350;1269;25563;-88
2023/12/10 15:17:52;;;;;;;148.40;69.70;;;;;;;0.38;100.00;98497.74;271473;1271;23273;-90
2023/12/10 15:23:55;;;;;;;133.70;63.70;;;;;;;0.34;100.00;98506.98;270881;1268;22542;-88
2023/12/10 15:29:57;;;;;;;170.50;83.40;;;;;;;0.31;100.00;98514.84;272010;1270;22563;-89
2023/12/10 15:36:10;;;;;;;178.50;82.50;;;;;;;0.29;100.00;98511.14;272798;1271;22205;-89
2023/12/10 15:42:15;;;;;;;177.90;86.10;;;;;;;0.29;100.00;98510.38;273429;1269;22428;-89
2023/12/10 15:48:17;;;;;;;155.60;75.00;;;;;;;0.27;100.00;98513.43;272963;1270;25355;-88
2023/12/10 15:54:19;;;;;;;138.10;67.60;;;;;;;0.26;100.00;98512.16;270970;1269;22354;-88
2023/12/10 16:00:21;;;;;;;116.70;59.50;;;;;;;0.27;100.00;98512.13;271477;1271;22606;-89
2023/12/10 16:06:24;;;;;;;160.80;79.70;;;;;;;0.26;100.00;98523.34;271782;1270;22710;-89
2023/12/10 16:12:26;;;;;;;171.90;88.80;;;;;;;0.25;100.00;98527.33;272097;1269;23438;-89
2023/12/10 16:18:28;;;;;;;194.70;96.30;;;;;;;0.24;100.00;98530.84;272294;1270;22866;-89
2023/12/10 16:24:30;;;;;;;193.10;92.80;;;;;;;0.21;100.00;98539.49;272873;1271;22542;-88
2023/12/10 16:30:33;;;;;;;122.40;60.60;;;;;;;0.21;100.00;98539.17;271181;1265;25216;-88
2023/12/10 16:36:37;;;;;;;96.90;51.30;;;;;;;0.25;100.00;98539.36;270379;1267;22581;-88
2023/12/10 16:42:39;;;;;;;104.70;50.30;;;;;;;0.30;100.00;98538.57;271388;1270;22560;-88
2023/12/10 16:48:50;;;;;;;100.30;49.00;;;;;;;0.32;100.00;98542.20;272975;1269;22422;-89
2023/12/10 16:54:53;;;;;;;103.40;51.80;;;;;;;0.32;100.00;98541.98;271805;1270;23124;-88
2023/12/10 17:00:55;;;;;;;114.10;54.90;;;;;;;0.31;100.00;98541.91;272494;1269;23719;-89
2023/12/10 17:06:57;;;;;;;118.10;54.70;;;;;;;0.32;100.00;98550.29;271646;1270;23391;-88
2023/12/10 17:13:00;;;;;;;107.60;51.00;;;;;;;0.34;100.00;98551.89;273312;1261;22438;-86
2023/12/10 17:19:02;;;;;;;104.60;51.10;;;;;;;0.35;100.00;98545.69;273410;1268;22193;-87
2023/12/10 17:25:05;;;;;;;109.70;52.10;;;;;;;0.36;100.00;98552.25;263921;1269;10002155;-88
2023/12/10 17:31:13;;;;;;;102.50;50.10;;;;;;;0.34;100.00;98545.53;271921;1270;23211;-87
2023/12/10 17:37:16;;;;;;;104.10;50.30;;;;;;;0.32;100.00;98546.30;272427;1270;22204;-87
2023/12/10 17:43:17;;;;;;;107.50;51.30;;;;;;;0.36;100.00;98549.04;271910;1269;22867;-87
2023/12/10 17:49:20;;;;;;;134.00;60.80;;;;;;;0.38;100.00;98540.08;273597;1270;22413;-88
2023/12/10 17:55:22;;;;;;;153.20;67.80;;;;;;;0.39;100.00;98542.14;273392;1269;22425;-88
2023/12/10 18:01:25;;;;;;;138.90;66.40;;;;;;;0.41;100.00;98538.44;272261;1265;23655;-88
2023/12/10 18:07:28;;;;;;;212.30;95.30;;;;;;;0.41;100.00;98542.76;272878;1269;22312;-87
2023/12/10 18:13:30;;;;;;;181.50;88.40;;;;;;;0.41;100.00;98553.50;272172;1269;23210;-88
2023/12/10 18:19:33;;;;;;;176.50;87.50;;;;;;;0.41;100.00;98555.15;271823;1268;22234;-90
2023/12/10 18:25:35;;;;;;;197.40;98.40;;;;;;;0.40;100.00;98559.77;273230;1271;22202;-88
2023/12/10 18:31:37;;;;;;;205.80;98.70;;;;;;;0.40;100.00;98557.02;273554;1269;22178;-88
2023/12/10 18:37:39;;;;;;;246.00;114.70;;;;;;;0.42;100.00;98554.26;273453;1271;22175;-87
2023/12/10 18:43:42;;;;;;;240.10;116.30;;;;;;;0.45;100.00;98548.91;273433;1269;22509;-89
2023/12/10 18:49:45;;;;;;;244.90;113.80;;;;;;;0.43;100.00;98544.27;272522;1271;23177;-87
2023/12/10 18:55:47;;;;;;;233.70;114.20;;;;;;;0.41;100.00;98537.21;273472;1271;22280;-88
2023/12/10 19:01:49;;;;;;;249.50;116.30;;;;;;;0.42;100.00;98541.24;271704;1269;22608;-87
2023/12/10 19:07:52;;;;;;;238.70;113.40;;;;;;;0.45;100.00;98541.52;272181;1269;23540;-88
2023/12/10 19:13:54;;;;;;;235.40;118.40;;;;;;;0.44;100.00;98533.25;272284;1269;23831;-88
2023/12/10 19:19:59;;;;;;;187.00;95.10;;;;;;;0.43;100.00;98528.98;272862;1271;23467;-88
2023/12/10 19:26:01;;;;;;;157.90;78.00;;;;;;;0.46;100.00;98520.73;273158;1273;22565;-87
2023/12/10 19:32:04;;;;;;;148.30;70.90;;;;;;;0.50;100.00;98518.23;271672;1271;22424;-89
2023/12/10 19:38:07;;;;;;;150.10;73.80;;;;;;;0.54;100.00;98516.29;273382;1271;22523;-89
2023/12/10 19:44:10;;;;;;;99.90;47.30;;;;;;;0.59;100.00;98511.95;273472;1269;22320;-88
2023/12/10 19:50:12;;;;;;;75.90;36.20;;;;;;;0.62;100.00;98507.20;271949;1269;22556;-90
2023/12/10 19:56:16;;;;;;;75.80;36.70;;;;;;;0.67;100.00;98503.00;272643;1270;22297;-89
2023/12/10 20:02:18;;;;;;;56.00;27.90;;;;;;;0.70;100.00;98496.59;272018;1268;22282;-90
2023/12/10 20:08:21;;;;;;;95.80;45.50;;;;;;;0.72;100.00;98502.82;272785;1271;22708;-89
2023/12/10 20:14:23;;;;;;;99.10;46.30;;;;;;;0.71;100.00;98501.95;272168;1269;22582;-88
2023/12/10 20:20:28;;;;;;;76.00;37.90;;;;;;;0.73;100.00;98503.07;271131;1273;22520;-90
2023/12/10 20:26:40;;;;;;;64.90;31.70;;;;;;;0.75;100.00;98505.56;272059;1271;23630;-89
2023/12/10 20:32:45;;;;;;;43.00;21.40;;;;;;;0.78;100.00;98499.55;273025;1275;22200;-90
2023/12/10 20:39:06;;;;;;;49.00;22.50;;;;;;;0.84;100.00;98493.88;271339;1262;24913;-88
2023/12/10 20:45:09;;;;;;;45.40;22.40;;;;;;;0.87;100.00;98487.04;272682;1271;22400;-89
2023/12/10 20:51:23;;;;;;;;;;;;;;;;;;;;;
2023/12/10 20:57:26;;;;;;;44.50;20.30;;;;;;;0.97;100.00;98465.48;273052;1273;22557;-89
2023/12/10 21:03:30;;;;;;;30.80;15.40;;;;;;;1.10;100.00;98456.87;271370;1271;22547;-90
2023/12/10 21:09:32;;;;;;;29.50;13.70;;;;;;;1.13;100.00;98454.22;271418;1269;22458;-89
2023/12/10 21:15:37;;;;;;;36.30;15.10;;;;;;;1.12;100.00;98463.16;273346;1272;23164;-89
2023/12/10 21:21:42;;;;;;;33.10;14.00;;;;;;;1.10;100.00;98462.56;273237;1273;22309;-89
2023/12/10 21:27:44;;;;;;;29.00;11.50;;;;;;;1.12;100.00;98461.42;273412;1269;22211;-90
2023/12/10 21:33:50;;;;;;;27.40;11.40;;;;;;;1.21;100.00;98458.14;273018;1273;22294;-89
2023/12/10 21:40:15;;;;;;;26.50;11.20;;;;;;;1.39;100.00;98449.27;273525;1271;22177;-88
2023/12/10 21:54:29;;;;;;;25.50;10.50;;;;;;;1.61;100.00;98440.12;272708;1270;24288;-89
2023/12/10 22:00:57;;;;;;;22.00;9.50;;;;;;;1.66;100.00;98425.25;273690;1269;23383;-88
2023/12/10 22:08:29;;;;;;;18.80;8.70;;;;;;;1.67;100.00;98411.54;273431;1274;22208;-89
2023/12/10 22:14:53;;;;;;;26.30;9.00;;;;;;;1.67;100.00;98405.00;273295;1269;22317;-87
2023/12/10 22:21:11;;;;;;;20.10;7.90;;;;;;;1.63;100.00;98391.70;273344;1276;22307;-89
2023/12/10 22:27:23;;;;;;;17.10;7.20;;;;;;;1.65;100.00;98384.98;273560;1276;22858;-87
2023/12/10 22:33:27;;;;;;;21.70;8.50;;;;;;;1.76;100.00;98384.19;273655;1273;23218;-87
2023/12/10 22:40:00;;;;;;;21.00;7.80;;;;;;;1.76;100.00;98381.13;270688;1270;25451;-87
2023/12/10 22:46:10;;;;;;;27.90;8.20;;;;;;;1.76;100.00;98377.55;270999;1272;22941;-88
2023/12/10 22:52:26;;;;;;;19.70;7.50;;;;;;;1.74;100.00;98369.40;271179;1270;22566;-88
2023/12/10 22:58:33;;;;;;;22.20;7.50;;;;;;;1.70;100.00;98364.50;272907;1269;22735;-89
2023/12/10 23:04:38;;;;;;;20.20;7.50;;;;;;;1.69;100.00;98352.13;272345;1269;22552;-89
2023/12/10 23:10:40;;;;;;;18.60;7.40;;;;;;;1.75;100.00;98340.52;270115;1269;23327;-89
2023/12/10 23:16:42;;;;;;;12.50;5.10;;;;;;;1.81;100.00;98333.63;271898;1269;22531;-87
2023/12/10 23:22:45;;;;;;;17.80;5.50;;;;;;;1.82;100.00;98328.12;273081;1270;22197;-89
2023/12/10 23:28:48;;;;;;;20.20;5.90;;;;;;;1.80;100.00;98323.52;273386;1270;22549;-89
2023/12/10 23:34:52;;;;;;;19.90;5.40;;;;;;;1.92;100.00;98322.70;272806;1272;22419;-90
2023/12/10 23:40:55;;;;;;;19.60;6.40;;;;;;;2.00;100.00;98318.65;273319;1271;22211;-90
2023/12/10 23:46:57;;;;;;;13.60;5.40;;;;;;;2.00;100.00;98317.25;273482;1269;22536;-90
2023/12/10 23:52:59;;;;;;;17.50;5.30;;;;;;;1.96;100.00;98316.75;270852;1273;22618;-90
2023/12/10 23:59:01;;;;;;;13.30;5.20;;;;;;;1.97;100.00;98313.98;272608;1271;24367;-90
